sensor_id;sensor_type;location;lat;lon;timestamp;temperature;humidity
27224;DHT22;14965;50.660;13.226;2023-10-08T00:00:38;15.40;99.90
27224;DHT22;14965;50.660;13.226;2023-10-08T00:03:04;15.40;99.90
27224;DHT22;14965;50.660;13.226;2023-10-08T00:05:35;15.40;99.90
27224;DHT22;14965;50.660;13.226;2023-10-08T00:08:01;15.40;99.90
27224;DHT22;14965;50.660;13.226;2023-10-08T00:10:28;15.40;99.90
27224;DHT22;14965;50.660;13.226;2023-10-08T00:12:54;15.30;99.90
27224;DHT22;14965;50.660;13.226;2023-10-08T00:15:20;15.30;99.90
27224;DHT22;14965;50.660;13.226;2023-10-08T00:17:46;15.30;99.90
27224;DHT22;14965;50.660;13.226;2023-10-08T00:20:12;15.30;99.90
27224;DHT22;14965;50.660;13.226;2023-10-08T00:22:37;15.30;99.90
27224;DHT22;14965;50.660;13.226;2023-10-08T00:25:04;15.30;99.90
27224;DHT22;14965;50.660;13.226;2023-10-08T00:27:32;15.30;99.90
27224;DHT22;14965;50.660;13.226;2023-10-08T00:29:58;15.30;99.90
27224;DHT22;14965;50.660;13.226;2023-10-08T00:32:24;15.30;99.90
27224;DHT22;14965;50.660;13.226;2023-10-08T00:34:50;15.30;99.90
27224;DHT22;14965;50.660;13.226;2023-10-08T00:37:16;15.30;99.90
27224;DHT22;14965;50.660;13.226;2023-10-08T00:39:42;15.30;99.90
27224;DHT22;14965;50.660;13.226;2023-10-08T00:42:08;15.30;99.90
27224;DHT22;14965;50.660;13.226;2023-10-08T00:44:36;15.30;99.90
27224;DHT22;14965;50.660;13.226;2023-10-08T00:47:03;15.30;99.90
27224;DHT22;14965;50.660;13.226;2023-10-08T00:49:30;15.30;99.90
27224;DHT22;14965;50.660;13.226;2023-10-08T00:51:57;15.20;99.90
27224;DHT22;14965;50.660;13.226;2023-10-08T00:54:26;15.30;99.90
27224;DHT22;14965;50.660;13.226;2023-10-08T00:56:52;15.30;99.90
27224;DHT22;14965;50.660;13.226;2023-10-08T00:59:18;15.30;99.90
27224;DHT22;14965;50.660;13.226;2023-10-08T01:01:45;15.30;99.90
27224;DHT22;14965;50.660;13.226;2023-10-08T01:04:16;15.20;99.90
27224;DHT22;14965;50.660;13.226;2023-10-08T01:06:42;15.20;99.90
27224;DHT22;14965;50.660;13.226;2023-10-08T01:09:08;15.30;99.90
27224;DHT22;14965;50.660;13.226;2023-10-08T01:11:34;15.30;99.90
27224;DHT22;14965;50.660;13.226;2023-10-08T01:14:00;15.30;99.90
27224;DHT22;14965;50.660;13.226;2023-10-08T01:16:26;15.30;99.90
27224;DHT22;14965;50.660;13.226;2023-10-08T01:18:54;15.30;99.90
27224;DHT22;14965;50.660;13.226;2023-10-08T01:21:20;15.30;99.90
27224;DHT22;14965;50.660;13.226;2023-10-08T01:23:47;15.30;99.90
27224;DHT22;14965;50.660;13.226;2023-10-08T01:26:13;15.30;99.90
27224;DHT22;14965;50.660;13.226;2023-10-08T01:28:39;15.30;99.90
27224;DHT22;14965;50.660;13.226;2023-10-08T01:31:05;15.30;99.90
27224;DHT22;14965;50.660;13.226;2023-10-08T01:33:31;15.30;99.90
27224;DHT22;14965;50.660;13.226;2023-10-08T01:35:57;15.30;99.90
27224;DHT22;14965;50.660;13.226;2023-10-08T01:38:23;15.30;99.90
27224;DHT22;14965;50.660;13.226;2023-10-08T01:40:51;15.30;99.90
27224;DHT22;14965;50.660;13.226;2023-10-08T01:43:17;15.30;99.90
27224;DHT22;14965;50.660;13.226;2023-10-08T01:45:44;15.30;99.90
27224;DHT22;14965;50.660;13.226;2023-10-08T01:48:10;15.30;99.90
27224;DHT22;14965;50.660;13.226;2023-10-08T01:50:36;15.30;99.90
27224;DHT22;14965;50.660;13.226;2023-10-08T01:53:03;15.30;99.90
27224;DHT22;14965;50.660;13.226;2023-10-08T01:55:29;15.30;99.90
27224;DHT22;14965;50.660;13.226;2023-10-08T01:57:56;15.30;99.90
27224;DHT22;14965;50.660;13.226;2023-10-08T02:00:22;15.20;99.90
27224;DHT22;14965;50.660;13.226;2023-10-08T02:02:50;15.20;99.90
27224;DHT22;14965;50.660;13.226;2023-10-08T02:05:16;15.10;99.90
27224;DHT22;14965;50.660;13.226;2023-10-08T02:07:42;15.10;99.90
27224;DHT22;14965;50.660;13.226;2023-10-08T02:10:08;15.10;99.90
27224;DHT22;14965;50.660;13.226;2023-10-08T02:12:34;15.20;99.90
27224;DHT22;14965;50.660;13.226;2023-10-08T02:15:03;15.10;99.90
27224;DHT22;14965;50.660;13.226;2023-10-08T02:17:29;15.10;99.90
27224;DHT22;14965;50.660;13.226;2023-10-08T02:19:55;15.10;99.90
27224;DHT22;14965;50.660;13.226;2023-10-08T02:22:21;15.10;99.90
27224;DHT22;14965;50.660;13.226;2023-10-08T02:24:47;15.10;99.90
27224;DHT22;14965;50.660;13.226;2023-10-08T02:27:13;15.00;99.90
27224;DHT22;14965;50.660;13.226;2023-10-08T02:29:39;15.00;99.90
27224;DHT22;14965;50.660;13.226;2023-10-08T02:32:06;15.00;99.90
27224;DHT22;14965;50.660;13.226;2023-10-08T02:34:32;15.00;99.90
27224;DHT22;14965;50.660;13.226;2023-10-08T02:36:58;15.10;99.90
27224;DHT22;14965;50.660;13.226;2023-10-08T02:39:24;15.10;99.90
27224;DHT22;14965;50.660;13.226;2023-10-08T02:41:49;15.00;99.90
27224;DHT22;14965;50.660;13.226;2023-10-08T02:44:17;15.00;99.90
27224;DHT22;14965;50.660;13.226;2023-10-08T02:46:43;15.00;99.90
27224;DHT22;14965;50.660;13.226;2023-10-08T02:49:11;15.00;99.90
27224;DHT22;14965;50.660;13.226;2023-10-08T02:51:38;15.00;99.90
27224;DHT22;14965;50.660;13.226;2023-10-08T02:54:05;15.00;99.90
27224;DHT22;14965;50.660;13.226;2023-10-08T02:56:31;15.00;99.90
27224;DHT22;14965;50.660;13.226;2023-10-08T02:58:57;15.00;99.90
27224;DHT22;14965;50.660;13.226;2023-10-08T03:01:24;15.00;99.90
27224;DHT22;14965;50.660;13.226;2023-10-08T03:03:49;15.00;99.90
27224;DHT22;14965;50.660;13.226;2023-10-08T03:06:17;14.90;99.90
27224;DHT22;14965;50.660;13.226;2023-10-08T03:08:43;15.00;99.90
27224;DHT22;14965;50.660;13.226;2023-10-08T03:11:10;15.00;99.90
27224;DHT22;14965;50.660;13.226;2023-10-08T03:13:36;15.00;99.90
27224;DHT22;14965;50.660;13.226;2023-10-08T03:16:02;15.00;99.90
27224;DHT22;14965;50.660;13.226;2023-10-08T03:18:29;15.00;99.90
27224;DHT22;14965;50.660;13.226;2023-10-08T03:20:55;15.00;99.90
27224;DHT22;14965;50.660;13.226;2023-10-08T03:23:23;15.00;99.90
27224;DHT22;14965;50.660;13.226;2023-10-08T03:25:52;15.10;99.90
27224;DHT22;14965;50.660;13.226;2023-10-08T03:28:19;15.10;99.90
27224;DHT22;14965;50.660;13.226;2023-10-08T03:30:45;15.10;99.90
27224;DHT22;14965;50.660;13.226;2023-10-08T03:33:11;15.10;99.90
27224;DHT22;14965;50.660;13.226;2023-10-08T03:35:37;15.10;99.90
27224;DHT22;14965;50.660;13.226;2023-10-08T03:38:03;15.10;99.90
27224;DHT22;14965;50.660;13.226;2023-10-08T03:40:31;15.10;99.90
27224;DHT22;14965;50.660;13.226;2023-10-08T03:42:57;15.10;99.90
27224;DHT22;14965;50.660;13.226;2023-10-08T03:45:23;15.10;99.90
27224;DHT22;14965;50.660;13.226;2023-10-08T03:47:49;15.10;99.90
27224;DHT22;14965;50.660;13.226;2023-10-08T03:50:15;15.10;99.90
27224;DHT22;14965;50.660;13.226;2023-10-08T03:52:41;14.80;99.90
27224;DHT22;14965;50.660;13.226;2023-10-08T03:55:07;14.50;99.90
27224;DHT22;14965;50.660;13.226;2023-10-08T03:57:35;13.90;99.90
27224;DHT22;14965;50.660;13.226;2023-10-08T04:00:01;13.30;99.90
27224;DHT22;14965;50.660;13.226;2023-10-08T04:02:27;12.80;99.90
27224;DHT22;14965;50.660;13.226;2023-10-08T04:04:53;12.40;99.90
27224;DHT22;14965;50.660;13.226;2023-10-08T04:07:19;12.20;99.90
27224;DHT22;14965;50.660;13.226;2023-10-08T04:09:46;11.90;99.90
27224;DHT22;14965;50.660;13.226;2023-10-08T04:12:12;11.90;99.90
27224;DHT22;14965;50.660;13.226;2023-10-08T04:14:39;11.70;99.90
27224;DHT22;14965;50.660;13.226;2023-10-08T04:17:05;11.60;99.90
27224;DHT22;14965;50.660;13.226;2023-10-08T04:19:31;11.50;99.90
27224;DHT22;14965;50.660;13.226;2023-10-08T04:21:57;11.40;99.90
27224;DHT22;14965;50.660;13.226;2023-10-08T04:24:24;11.40;99.90
27224;DHT22;14965;50.660;13.226;2023-10-08T04:26:51;11.40;99.90
27224;DHT22;14965;50.660;13.226;2023-10-08T04:29:17;11.30;99.90
27224;DHT22;14965;50.660;13.226;2023-10-08T04:31:44;11.30;99.90
27224;DHT22;14965;50.660;13.226;2023-10-08T04:34:10;11.30;99.90
27224;DHT22;14965;50.660;13.226;2023-10-08T04:36:36;11.30;99.90
27224;DHT22;14965;50.660;13.226;2023-10-08T04:39:02;11.20;99.90
27224;DHT22;14965;50.660;13.226;2023-10-08T04:41:28;11.30;99.90
27224;DHT22;14965;50.660;13.226;2023-10-08T04:43:54;11.30;99.90
27224;DHT22;14965;50.660;13.226;2023-10-08T04:46:20;11.30;99.90
27224;DHT22;14965;50.660;13.226;2023-10-08T04:48:48;11.30;99.90
27224;DHT22;14965;50.660;13.226;2023-10-08T04:51:14;11.20;99.90
27224;DHT22;14965;50.660;13.226;2023-10-08T04:53:40;11.20;99.90
27224;DHT22;14965;50.660;13.226;2023-10-08T04:56:07;11.20;99.90
27224;DHT22;14965;50.660;13.226;2023-10-08T04:58:34;11.20;99.90
27224;DHT22;14965;50.660;13.226;2023-10-08T05:01:00;11.10;99.90
27224;DHT22;14965;50.660;13.226;2023-10-08T05:03:26;11.10;99.90
27224;DHT22;14965;50.660;13.226;2023-10-08T05:05:54;11.10;99.90
27224;DHT22;14965;50.660;13.226;2023-10-08T05:08:20;11.10;99.90
27224;DHT22;14965;50.660;13.226;2023-10-08T05:10:46;11.00;99.90
27224;DHT22;14965;50.660;13.226;2023-10-08T05:13:12;11.00;99.90
27224;DHT22;14965;50.660;13.226;2023-10-08T05:15:38;10.90;99.90
27224;DHT22;14965;50.660;13.226;2023-10-08T05:18:04;11.00;99.90
27224;DHT22;14965;50.660;13.226;2023-10-08T05:20:30;11.00;99.90
27224;DHT22;14965;50.660;13.226;2023-10-08T05:22:57;11.10;99.90
27224;DHT22;14965;50.660;13.226;2023-10-08T05:25:23;11.00;99.90
27224;DHT22;14965;50.660;13.226;2023-10-08T05:27:52;10.90;99.90
27224;DHT22;14965;50.660;13.226;2023-10-08T05:30:21;10.90;99.90
27224;DHT22;14965;50.660;13.226;2023-10-08T05:32:48;10.80;99.90
27224;DHT22;14965;50.660;13.226;2023-10-08T05:35:14;10.90;99.90
27224;DHT22;14965;50.660;13.226;2023-10-08T05:37:40;10.80;99.90
27224;DHT22;14965;50.660;13.226;2023-10-08T05:40:08;10.70;99.90
27224;DHT22;14965;50.660;13.226;2023-10-08T05:42:35;10.70;99.90
27224;DHT22;14965;50.660;13.226;2023-10-08T05:45:01;10.70;99.90
27224;DHT22;14965;50.660;13.226;2023-10-08T05:47:27;10.60;99.90
27224;DHT22;14965;50.660;13.226;2023-10-08T05:49:53;10.60;99.90
27224;DHT22;14965;50.660;13.226;2023-10-08T05:52:19;10.60;99.90
27224;DHT22;14965;50.660;13.226;2023-10-08T05:54:45;10.50;99.90
27224;DHT22;14965;50.660;13.226;2023-10-08T05:57:12;10.30;99.90
27224;DHT22;14965;50.660;13.226;2023-10-08T05:59:39;10.10;99.90
27224;DHT22;14965;50.660;13.226;2023-10-08T06:02:06;10.00;99.90
27224;DHT22;14965;50.660;13.226;2023-10-08T06:04:32;9.90;99.90
27224;DHT22;14965;50.660;13.226;2023-10-08T06:06:58;9.90;99.90
27224;DHT22;14965;50.660;13.226;2023-10-08T06:09:24;9.90;99.90
27224;DHT22;14965;50.660;13.226;2023-10-08T06:11:50;9.80;99.90
27224;DHT22;14965;50.660;13.226;2023-10-08T06:14:17;9.70;99.90
27224;DHT22;14965;50.660;13.226;2023-10-08T06:16:44;9.60;99.90
27224;DHT22;14965;50.660;13.226;2023-10-08T06:19:11;9.50;99.90
27224;DHT22;14965;50.660;13.226;2023-10-08T06:21:38;9.40;99.90
27224;DHT22;14965;50.660;13.226;2023-10-08T06:24:06;9.40;99.90
27224;DHT22;14965;50.660;13.226;2023-10-08T06:26:32;9.30;99.90
27224;DHT22;14965;50.660;13.226;2023-10-08T06:28:58;9.20;99.90
27224;DHT22;14965;50.660;13.226;2023-10-08T06:31:25;9.20;99.90
27224;DHT22;14965;50.660;13.226;2023-10-08T06:33:51;9.20;99.90
27224;DHT22;14965;50.660;13.226;2023-10-08T06:36:17;9.20;99.90
27224;DHT22;14965;50.660;13.226;2023-10-08T06:38:45;9.20;99.90
27224;DHT22;14965;50.660;13.226;2023-10-08T06:41:12;9.20;99.90
27224;DHT22;14965;50.660;13.226;2023-10-08T06:43:39;9.20;99.90
27224;DHT22;14965;50.660;13.226;2023-10-08T06:46:06;9.20;99.90
27224;DHT22;14965;50.660;13.226;2023-10-08T06:48:33;9.20;99.90
27224;DHT22;14965;50.660;13.226;2023-10-08T06:51:00;9.30;99.90
27224;DHT22;14965;50.660;13.226;2023-10-08T06:53:26;9.30;99.90
27224;DHT22;14965;50.660;13.226;2023-10-08T06:55:52;9.30;99.90
27224;DHT22;14965;50.660;13.226;2023-10-08T06:58:18;9.30;99.90
27224;DHT22;14965;50.660;13.226;2023-10-08T07:00:44;9.20;99.90
27224;DHT22;14965;50.660;13.226;2023-10-08T07:03:10;9.20;99.90
27224;DHT22;14965;50.660;13.226;2023-10-08T07:05:37;9.20;99.90
27224;DHT22;14965;50.660;13.226;2023-10-08T07:08:03;9.30;99.90
27224;DHT22;14965;50.660;13.226;2023-10-08T07:10:30;9.40;99.90
27224;DHT22;14965;50.660;13.226;2023-10-08T07:12:56;9.40;99.90
27224;DHT22;14965;50.660;13.226;2023-10-08T07:15:22;9.40;99.90
27224;DHT22;14965;50.660;13.226;2023-10-08T07:17:48;9.40;99.90
27224;DHT22;14965;50.660;13.226;2023-10-08T07:20:14;9.40;99.90
27224;DHT22;14965;50.660;13.226;2023-10-08T07:22:41;9.40;99.90
27224;DHT22;14965;50.660;13.226;2023-10-08T07:25:08;9.40;99.90
27224;DHT22;14965;50.660;13.226;2023-10-08T07:27:34;9.30;99.90
27224;DHT22;14965;50.660;13.226;2023-10-08T07:30:00;9.30;99.90
27224;DHT22;14965;50.660;13.226;2023-10-08T07:32:26;9.30;99.90
27224;DHT22;14965;50.660;13.226;2023-10-08T07:34:52;9.30;99.90
27224;DHT22;14965;50.660;13.226;2023-10-08T07:37:18;9.30;99.90
27224;DHT22;14965;50.660;13.226;2023-10-08T07:39:45;9.30;99.90
27224;DHT22;14965;50.660;13.226;2023-10-08T07:42:11;9.40;99.90
27224;DHT22;14965;50.660;13.226;2023-10-08T07:44:38;9.30;99.90
27224;DHT22;14965;50.660;13.226;2023-10-08T07:47:05;9.30;99.90
27224;DHT22;14965;50.660;13.226;2023-10-08T07:49:32;9.30;99.90
27224;DHT22;14965;50.660;13.226;2023-10-08T07:51:58;9.40;99.90
27224;DHT22;14965;50.660;13.226;2023-10-08T07:54:25;9.40;99.90
27224;DHT22;14965;50.660;13.226;2023-10-08T07:56:54;9.40;99.90
27224;DHT22;14965;50.660;13.226;2023-10-08T07:59:20;9.40;99.90
27224;DHT22;14965;50.660;13.226;2023-10-08T08:01:46;9.50;99.90
27224;DHT22;14965;50.660;13.226;2023-10-08T08:04:12;9.40;99.90
27224;DHT22;14965;50.660;13.226;2023-10-08T08:06:38;9.30;99.90
27224;DHT22;14965;50.660;13.226;2023-10-08T08:09:04;9.30;99.90
27224;DHT22;14965;50.660;13.226;2023-10-08T08:11:30;9.30;99.90
27224;DHT22;14965;50.660;13.226;2023-10-08T08:13:58;9.30;99.90
27224;DHT22;14965;50.660;13.226;2023-10-08T08:16:23;9.00;99.90
27224;DHT22;14965;50.660;13.226;2023-10-08T08:18:51;8.70;99.90
27224;DHT22;14965;50.660;13.226;2023-10-08T08:21:19;8.40;99.90
27224;DHT22;14965;50.660;13.226;2023-10-08T08:23:46;8.30;99.90
27224;DHT22;14965;50.660;13.226;2023-10-08T08:26:13;8.20;99.90
27224;DHT22;14965;50.660;13.226;2023-10-08T08:28:42;8.10;99.90
27224;DHT22;14965;50.660;13.226;2023-10-08T08:31:09;7.90;99.90
27224;DHT22;14965;50.660;13.226;2023-10-08T08:33:35;7.80;99.90
27224;DHT22;14965;50.660;13.226;2023-10-08T08:36:01;7.70;99.90
27224;DHT22;14965;50.660;13.226;2023-10-08T08:38:28;7.70;99.90
27224;DHT22;14965;50.660;13.226;2023-10-08T08:41:01;7.80;99.90
27224;DHT22;14965;50.660;13.226;2023-10-08T08:43:28;7.80;99.90
27224;DHT22;14965;50.660;13.226;2023-10-08T08:45:56;7.90;99.90
27224;DHT22;14965;50.660;13.226;2023-10-08T08:48:23;7.90;99.90
27224;DHT22;14965;50.660;13.226;2023-10-08T08:50:49;8.00;99.90
27224;DHT22;14965;50.660;13.226;2023-10-08T08:53:15;8.20;99.90
27224;DHT22;14965;50.660;13.226;2023-10-08T08:55:41;8.30;99.90
27224;DHT22;14965;50.660;13.226;2023-10-08T08:58:07;8.40;99.90
27224;DHT22;14965;50.660;13.226;2023-10-08T09:00:34;8.50;99.90
27224;DHT22;14965;50.660;13.226;2023-10-08T09:03:00;8.50;99.90
27224;DHT22;14965;50.660;13.226;2023-10-08T09:05:28;8.60;99.90
27224;DHT22;14965;50.660;13.226;2023-10-08T09:07:55;8.50;99.90
27224;DHT22;14965;50.660;13.226;2023-10-08T09:10:24;8.60;99.90
27224;DHT22;14965;50.660;13.226;2023-10-08T09:12:51;8.50;99.90
27224;DHT22;14965;50.660;13.226;2023-10-08T09:15:17;8.60;99.90
27224;DHT22;14965;50.660;13.226;2023-10-08T09:17:43;8.70;99.90
27224;DHT22;14965;50.660;13.226;2023-10-08T09:20:09;8.80;99.90
27224;DHT22;14965;50.660;13.226;2023-10-08T09:22:37;8.90;99.90
27224;DHT22;14965;50.660;13.226;2023-10-08T09:25:03;9.00;99.90
27224;DHT22;14965;50.660;13.226;2023-10-08T09:27:29;9.10;99.90
27224;DHT22;14965;50.660;13.226;2023-10-08T09:29:55;9.10;99.90
27224;DHT22;14965;50.660;13.226;2023-10-08T09:32:21;9.00;99.90
27224;DHT22;14965;50.660;13.226;2023-10-08T09:34:47;9.00;99.90
27224;DHT22;14965;50.660;13.226;2023-10-08T09:37:14;9.10;99.90
27224;DHT22;14965;50.660;13.226;2023-10-08T09:39:42;9.10;99.90
27224;DHT22;14965;50.660;13.226;2023-10-08T09:42:08;9.00;99.90
27224;DHT22;14965;50.660;13.226;2023-10-08T09:44:36;9.10;99.90
27224;DHT22;14965;50.660;13.226;2023-10-08T09:47:04;9.20;99.90
27224;DHT22;14965;50.660;13.226;2023-10-08T09:49:32;9.30;99.90
27224;DHT22;14965;50.660;13.226;2023-10-08T09:52:03;9.30;99.90
27224;DHT22;14965;50.660;13.226;2023-10-08T09:54:31;9.40;99.90
27224;DHT22;14965;50.660;13.226;2023-10-08T09:57:04;9.50;99.90
27224;DHT22;14965;50.660;13.226;2023-10-08T09:59:31;9.50;99.90
27224;DHT22;14965;50.660;13.226;2023-10-08T10:01:59;9.50;99.90
27224;DHT22;14965;50.660;13.226;2023-10-08T10:04:26;9.50;99.90
27224;DHT22;14965;50.660;13.226;2023-10-08T10:06:52;9.50;99.90
27224;DHT22;14965;50.660;13.226;2023-10-08T10:09:20;9.70;99.90
27224;DHT22;14965;50.660;13.226;2023-10-08T10:11:48;10.00;99.90
27224;DHT22;14965;50.660;13.226;2023-10-08T10:14:16;10.20;99.90
27224;DHT22;14965;50.660;13.226;2023-10-08T10:16:42;10.30;99.90
27224;DHT22;14965;50.660;13.226;2023-10-08T10:19:16;10.50;99.90
27224;DHT22;14965;50.660;13.226;2023-10-08T10:21:43;10.40;99.90
27224;DHT22;14965;50.660;13.226;2023-10-08T10:24:22;10.30;99.90
27224;DHT22;14965;50.660;13.226;2023-10-08T10:27:09;10.40;99.90
27224;DHT22;14965;50.660;13.226;2023-10-08T10:29:38;10.40;99.90
27224;DHT22;14965;50.660;13.226;2023-10-08T10:32:04;10.50;99.90
27224;DHT22;14965;50.660;13.226;2023-10-08T10:34:29;10.60;99.90
27224;DHT22;14965;50.660;13.226;2023-10-08T10:36:57;10.60;99.90
27224;DHT22;14965;50.660;13.226;2023-10-08T10:39:24;10.50;99.90
27224;DHT22;14965;50.660;13.226;2023-10-08T10:41:52;10.40;99.90
27224;DHT22;14965;50.660;13.226;2023-10-08T10:44:18;10.30;99.90
27224;DHT22;14965;50.660;13.226;2023-10-08T10:46:46;10.30;99.90
27224;DHT22;14965;50.660;13.226;2023-10-08T10:49:12;10.30;99.90
27224;DHT22;14965;50.660;13.226;2023-10-08T10:51:38;10.20;99.90
27224;DHT22;14965;50.660;13.226;2023-10-08T10:54:05;10.20;99.90
27224;DHT22;14965;50.660;13.226;2023-10-08T10:56:31;10.20;99.90
27224;DHT22;14965;50.660;13.226;2023-10-08T10:58:59;10.30;99.90
27224;DHT22;14965;50.660;13.226;2023-10-08T11:01:26;10.50;99.90
27224;DHT22;14965;50.660;13.226;2023-10-08T11:03:56;10.70;99.90
27224;DHT22;14965;50.660;13.226;2023-10-08T11:06:23;10.70;99.90
27224;DHT22;14965;50.660;13.226;2023-10-08T11:08:50;10.80;99.90
27224;DHT22;14965;50.660;13.226;2023-10-08T11:11:18;10.80;99.90
27224;DHT22;14965;50.660;13.226;2023-10-08T11:13:44;10.90;99.90
27224;DHT22;14965;50.660;13.226;2023-10-08T11:16:10;11.10;99.90
27224;DHT22;14965;50.660;13.226;2023-10-08T11:18:43;11.10;99.90
27224;DHT22;14965;50.660;13.226;2023-10-08T11:21:11;11.00;99.90
27224;DHT22;14965;50.660;13.226;2023-10-08T11:23:41;11.10;99.90
27224;DHT22;14965;50.660;13.226;2023-10-08T11:26:08;11.10;99.90
27224;DHT22;14965;50.660;13.226;2023-10-08T11:28:35;11.20;99.90
27224;DHT22;14965;50.660;13.226;2023-10-08T11:31:04;11.20;99.90
27224;DHT22;14965;50.660;13.226;2023-10-08T11:33:30;11.30;99.90
27224;DHT22;14965;50.660;13.226;2023-10-08T11:35:57;11.40;99.90
27224;DHT22;14965;50.660;13.226;2023-10-08T11:38:25;11.60;99.90
27224;DHT22;14965;50.660;13.226;2023-10-08T11:40:51;11.60;99.90
27224;DHT22;14965;50.660;13.226;2023-10-08T11:43:17;11.70;99.90
27224;DHT22;14965;50.660;13.226;2023-10-08T11:45:43;11.50;99.90
27224;DHT22;14965;50.660;13.226;2023-10-08T11:48:09;11.50;99.90
27224;DHT22;14965;50.660;13.226;2023-10-08T11:50:35;11.50;99.90
27224;DHT22;14965;50.660;13.226;2023-10-08T11:53:02;11.60;99.90
27224;DHT22;14965;50.660;13.226;2023-10-08T11:55:30;11.70;99.90
27224;DHT22;14965;50.660;13.226;2023-10-08T11:57:57;11.80;99.90
27224;DHT22;14965;50.660;13.226;2023-10-08T12:00:23;11.80;99.90
27224;DHT22;14965;50.660;13.226;2023-10-08T12:02:49;11.80;99.90
27224;DHT22;14965;50.660;13.226;2023-10-08T12:05:16;11.70;99.90
27224;DHT22;14965;50.660;13.226;2023-10-08T12:07:42;11.70;99.90
27224;DHT22;14965;50.660;13.226;2023-10-08T12:10:08;11.60;99.90
27224;DHT22;14965;50.660;13.226;2023-10-08T12:12:36;11.50;99.90
27224;DHT22;14965;50.660;13.226;2023-10-08T12:15:02;11.40;99.90
27224;DHT22;14965;50.660;13.226;2023-10-08T12:17:28;11.40;99.90
27224;DHT22;14965;50.660;13.226;2023-10-08T12:19:54;11.40;99.90
27224;DHT22;14965;50.660;13.226;2023-10-08T12:22:20;11.30;99.90
27224;DHT22;14965;50.660;13.226;2023-10-08T12:24:46;11.30;99.90
27224;DHT22;14965;50.660;13.226;2023-10-08T12:27:12;11.30;99.90
27224;DHT22;14965;50.660;13.226;2023-10-08T12:29:39;11.20;99.90
27224;DHT22;14965;50.660;13.226;2023-10-08T12:32:05;11.10;99.90
27224;DHT22;14965;50.660;13.226;2023-10-08T12:34:31;11.00;99.90
27224;DHT22;14965;50.660;13.226;2023-10-08T12:36:57;10.90;99.90
27224;DHT22;14965;50.660;13.226;2023-10-08T12:39:23;10.90;99.90
27224;DHT22;14965;50.660;13.226;2023-10-08T12:41:49;10.80;99.90
27224;DHT22;14965;50.660;13.226;2023-10-08T12:44:15;10.80;99.90
27224;DHT22;14965;50.660;13.226;2023-10-08T12:46:42;10.70;99.90
27224;DHT22;14965;50.660;13.226;2023-10-08T12:49:08;10.80;99.90
27224;DHT22;14965;50.660;13.226;2023-10-08T12:51:34;10.80;99.90
27224;DHT22;14965;50.660;13.226;2023-10-08T12:54:01;10.90;99.90
27224;DHT22;14965;50.660;13.226;2023-10-08T12:56:27;10.90;99.90
27224;DHT22;14965;50.660;13.226;2023-10-08T12:58:53;10.80;99.90
27224;DHT22;14965;50.660;13.226;2023-10-08T13:01:19;10.70;99.90
27224;DHT22;14965;50.660;13.226;2023-10-08T13:03:47;10.70;99.90
27224;DHT22;14965;50.660;13.226;2023-10-08T13:06:13;10.70;99.90
27224;DHT22;14965;50.660;13.226;2023-10-08T13:08:40;10.70;99.90
27224;DHT22;14965;50.660;13.226;2023-10-08T13:11:06;10.80;99.90
27224;DHT22;14965;50.660;13.226;2023-10-08T13:13:32;10.90;99.90
27224;DHT22;14965;50.660;13.226;2023-10-08T13:15:59;11.00;99.90
27224;DHT22;14965;50.660;13.226;2023-10-08T13:18:25;11.10;99.90
27224;DHT22;14965;50.660;13.226;2023-10-08T13:20:53;10.90;99.90
27224;DHT22;14965;50.660;13.226;2023-10-08T13:23:20;11.00;99.90
27224;DHT22;14965;50.660;13.226;2023-10-08T13:25:46;11.10;99.90
27224;DHT22;14965;50.660;13.226;2023-10-08T13:28:12;11.20;99.90
27224;DHT22;14965;50.660;13.226;2023-10-08T13:30:38;11.40;99.90
27224;DHT22;14965;50.660;13.226;2023-10-08T13:33:04;11.50;99.90
27224;DHT22;14965;50.660;13.226;2023-10-08T13:35:30;11.60;99.90
27224;DHT22;14965;50.660;13.226;2023-10-08T13:37:57;11.70;99.90
27224;DHT22;14965;50.660;13.226;2023-10-08T13:40:23;11.60;99.90
27224;DHT22;14965;50.660;13.226;2023-10-08T13:42:49;11.60;99.90
27224;DHT22;14965;50.660;13.226;2023-10-08T13:45:15;11.70;99.90
27224;DHT22;14965;50.660;13.226;2023-10-08T13:47:41;11.70;99.90
27224;DHT22;14965;50.660;13.226;2023-10-08T13:50:07;11.60;99.90
27224;DHT22;14965;50.660;13.226;2023-10-08T13:52:33;11.50;99.90
27224;DHT22;14965;50.660;13.226;2023-10-08T13:55:01;11.50;99.90
27224;DHT22;14965;50.660;13.226;2023-10-08T13:57:27;11.50;99.90
27224;DHT22;14965;50.660;13.226;2023-10-08T13:59:52;11.60;99.90
27224;DHT22;14965;50.660;13.226;2023-10-08T14:02:18;11.60;99.90
27224;DHT22;14965;50.660;13.226;2023-10-08T14:04:45;11.60;99.90
27224;DHT22;14965;50.660;13.226;2023-10-08T14:07:11;11.60;99.90
27224;DHT22;14965;50.660;13.226;2023-10-08T14:09:38;11.60;99.90
27224;DHT22;14965;50.660;13.226;2023-10-08T14:12:05;11.60;99.90
27224;DHT22;14965;50.660;13.226;2023-10-08T14:14:32;11.60;99.90
27224;DHT22;14965;50.660;13.226;2023-10-08T14:16:58;11.70;99.90
27224;DHT22;14965;50.660;13.226;2023-10-08T14:19:25;11.70;99.90
27224;DHT22;14965;50.660;13.226;2023-10-08T14:21:52;11.70;99.90
27224;DHT22;14965;50.660;13.226;2023-10-08T14:24:18;11.60;99.90
27224;DHT22;14965;50.660;13.226;2023-10-08T14:26:44;11.40;99.90
27224;DHT22;14965;50.660;13.226;2023-10-08T14:29:12;11.30;99.90
27224;DHT22;14965;50.660;13.226;2023-10-08T14:31:37;11.30;99.90
27224;DHT22;14965;50.660;13.226;2023-10-08T14:34:03;11.20;99.90
27224;DHT22;14965;50.660;13.226;2023-10-08T14:36:29;11.00;99.90
27224;DHT22;14965;50.660;13.226;2023-10-08T14:38:55;10.90;99.90
27224;DHT22;14965;50.660;13.226;2023-10-08T14:41:21;10.90;99.90
27224;DHT22;14965;50.660;13.226;2023-10-08T14:43:47;10.90;99.90
27224;DHT22;14965;50.660;13.226;2023-10-08T14:46:14;10.90;99.90
27224;DHT22;14965;50.660;13.226;2023-10-08T14:48:41;10.90;99.90
27224;DHT22;14965;50.660;13.226;2023-10-08T14:51:07;11.00;99.90
27224;DHT22;14965;50.660;13.226;2023-10-08T14:53:33;11.00;99.90
27224;DHT22;14965;50.660;13.226;2023-10-08T14:56:00;11.00;99.90
27224;DHT22;14965;50.660;13.226;2023-10-08T14:58:26;11.00;99.90
27224;DHT22;14965;50.660;13.226;2023-10-08T15:00:52;11.00;99.90
27224;DHT22;14965;50.660;13.226;2023-10-08T15:03:19;10.90;99.90
27224;DHT22;14965;50.660;13.226;2023-10-08T15:05:45;10.80;99.90
27224;DHT22;14965;50.660;13.226;2023-10-08T15:08:11;10.60;99.90
27224;DHT22;14965;50.660;13.226;2023-10-08T15:10:37;10.50;99.90
27224;DHT22;14965;50.660;13.226;2023-10-08T15:13:04;10.50;99.90
27224;DHT22;14965;50.660;13.226;2023-10-08T15:15:30;10.50;99.90